createdAt,value
2022-11-10T00:01:21.990Z,8.25
2022-11-10T00:03:51.432Z,8.20
2022-11-10T00:06:19.973Z,8.25
2022-11-10T00:08:49.882Z,8.31
2022-11-10T00:11:18.687Z,8.32
2022-11-10T00:14:07.917Z,8.29
2022-11-10T00:16:55.200Z,8.29
2022-11-10T00:19:24.326Z,8.27
2022-11-10T00:21:54.385Z,8.25
2022-11-10T00:24:23.568Z,8.20
2022-11-10T00:26:53.447Z,8.25
2022-11-10T00:29:22.371Z,8.18
2022-11-10T00:31:52.589Z,8.09
2022-11-10T00:34:21.152Z,8.13
2022-11-10T00:36:50.019Z,8.07
2022-11-10T00:39:18.439Z,8.04
2022-11-10T00:41:47.415Z,8.09
2022-11-10T00:44:15.819Z,8.12
2022-11-10T00:46:44.378Z,8.04
2022-11-10T00:49:14.487Z,8.02
2022-11-10T00:51:43.120Z,7.98
2022-11-10T00:54:12.172Z,7.97
2022-11-10T00:57:27.258Z,8.00
2022-11-10T01:00:13.522Z,8.04
2022-11-10T01:02:42.153Z,8.04
2022-11-10T01:05:12.727Z,8.02
2022-11-10T01:07:41.943Z,8.00
2022-11-10T01:10:10.846Z,8.01
2022-11-10T01:12:39.444Z,8.02
2022-11-10T01:15:10.815Z,8.01
2022-11-10T01:17:40.105Z,7.97
2022-11-10T01:20:14.200Z,7.85
2022-11-10T01:22:43.265Z,7.88
2022-11-10T01:25:13.162Z,7.87
2022-11-10T01:27:41.812Z,7.87
2022-11-10T01:30:11.236Z,7.74
2022-11-10T01:32:39.716Z,7.79
2022-11-10T01:35:11.491Z,7.80
2022-11-10T01:37:41.488Z,7.82
2022-11-10T01:40:14.327Z,7.76
2022-11-10T01:42:51.727Z,7.80
2022-11-10T01:45:48.019Z,7.77
2022-11-10T01:48:33.014Z,7.75
2022-11-10T01:51:06.974Z,7.73
2022-11-10T01:53:42.477Z,7.63
2022-11-10T01:56:15.566Z,7.56
2022-11-10T01:59:00.983Z,7.59
2022-11-10T02:01:30.244Z,7.59
2022-11-10T02:04:02.670Z,7.63
2022-11-10T02:06:35.704Z,7.56
2022-11-10T02:09:06.096Z,7.54
2022-11-10T02:11:36.993Z,7.49
2022-11-10T02:14:06.383Z,7.47
2022-11-10T02:16:35.599Z,7.47
2022-11-10T02:19:41.149Z,7.47
2022-11-10T02:22:12.172Z,7.38
2022-11-10T02:24:46.164Z,7.27
2022-11-10T02:27:15.394Z,7.26
2022-11-10T02:29:45.907Z,7.32
2022-11-10T02:32:14.913Z,7.21
2022-11-10T02:34:44.362Z,7.29
2022-11-10T02:37:14.832Z,7.28
2022-11-10T02:39:44.835Z,7.28
2022-11-10T02:42:14.408Z,7.34
2022-11-10T02:44:44.087Z,7.26
2022-11-10T02:47:13.474Z,7.19
2022-11-10T02:49:45.045Z,7.20
2022-11-10T02:52:15.812Z,7.19
2022-11-10T02:54:45.396Z,7.20
2022-11-10T02:57:15.062Z,7.13
2022-11-10T02:59:45.151Z,7.12
2022-11-10T03:02:15.454Z,7.15
2022-11-10T03:04:45.188Z,7.12
2022-11-10T03:07:16.595Z,7.09
2022-11-10T03:09:46.878Z,7.03
2022-11-10T03:12:15.819Z,7.02
2022-11-10T03:14:44.815Z,7.04
2022-11-10T03:17:14.454Z,7.07
2022-11-10T03:19:44.529Z,7.09
2022-11-10T03:22:15.616Z,7.11
2022-11-10T03:24:44.607Z,7.09
2022-11-10T03:27:13.503Z,7.10
2022-11-10T03:29:43.158Z,7.07
2022-11-10T03:32:12.961Z,7.11
2022-11-10T03:34:42.617Z,7.13
2022-11-10T03:37:11.522Z,7.12
2022-11-10T03:39:42.713Z,7.11
2022-11-10T03:42:12.184Z,7.10
2022-11-10T03:44:42.612Z,7.10
2022-11-10T03:47:11.962Z,7.12
2022-11-10T03:49:41.912Z,7.08
2022-11-10T03:52:12.750Z,7.05
2022-11-10T03:54:43.635Z,7.07
2022-11-10T03:57:13.818Z,7.07
2022-11-10T03:59:42.982Z,7.06
2022-11-10T04:02:12.793Z,7.05
2022-11-10T04:05:11.173Z,7.05
2022-11-10T04:07:58.789Z,7.06
2022-11-10T04:10:30.241Z,7.08
2022-11-10T04:13:17.863Z,7.07
2022-11-10T04:15:48.046Z,7.06
2022-11-10T04:18:25.718Z,7.05
2022-11-10T04:20:56.847Z,7.08
2022-11-10T04:23:30.555Z,7.06
2022-11-10T04:26:24.090Z,7.06
2022-11-10T04:28:58.610Z,7.00
2022-11-10T04:31:30.717Z,6.99
2022-11-10T04:34:00.664Z,6.94
2022-11-10T04:36:34.072Z,6.96
2022-11-10T04:39:04.754Z,6.91
2022-11-10T04:41:36.816Z,6.82
2022-11-10T04:44:05.640Z,6.86
2022-11-10T04:46:37.807Z,6.86
2022-11-10T04:49:10.009Z,6.87
2022-11-10T04:51:40.532Z,6.88
2022-11-10T04:54:10.079Z,6.89
2022-11-10T04:56:41.497Z,6.88
2022-11-10T04:59:10.095Z,6.87
2022-11-10T05:01:40.740Z,6.84
2022-11-10T05:04:12.780Z,6.81
2022-11-10T05:06:42.601Z,6.81
2022-11-10T05:09:11.221Z,6.81
2022-11-10T05:11:42.386Z,6.77
2022-11-10T05:14:13.386Z,6.81
2022-11-10T05:16:43.980Z,6.82
2022-11-10T05:19:13.800Z,6.83
2022-11-10T05:21:44.073Z,6.86
2022-11-10T05:24:14.038Z,6.83
2022-11-10T05:26:44.968Z,6.83
2022-11-10T05:29:14.460Z,6.82
2022-11-10T05:31:46.782Z,6.76
2022-11-10T05:34:18.839Z,6.72
2022-11-10T05:36:48.494Z,6.67
2022-11-10T05:39:19.195Z,6.62
2022-11-10T05:41:51.305Z,6.64
2022-11-10T05:44:21.603Z,6.62
2022-11-10T05:46:51.420Z,6.58
2022-11-10T05:49:21.891Z,6.57
2022-11-10T05:51:52.951Z,6.58
2022-11-10T05:54:23.286Z,6.52
2022-11-10T05:56:55.410Z,6.55
2022-11-10T05:59:25.120Z,6.59
2022-11-10T06:01:53.675Z,6.54
2022-11-10T06:04:24.185Z,6.57
2022-11-10T06:06:54.664Z,6.57
2022-11-10T06:09:24.377Z,6.58
2022-11-10T06:11:56.365Z,6.56
2022-11-10T06:14:28.025Z,6.56
2022-11-10T06:16:59.924Z,6.58
2022-11-10T06:19:29.828Z,6.59
2022-11-10T06:22:03.661Z,6.62
2022-11-10T06:24:37.397Z,6.63
2022-11-10T06:27:09.726Z,6.62
2022-11-10T06:29:40.935Z,6.63
2022-11-10T06:32:12.041Z,6.58
2022-11-10T06:34:42.102Z,6.59
2022-11-10T06:37:12.136Z,6.64
2022-11-10T06:39:41.576Z,6.69
2022-11-10T06:42:11.599Z,6.72
2022-11-10T06:44:42.380Z,6.75
2022-11-10T06:47:11.924Z,6.78
2022-11-10T06:49:42.043Z,6.81
2022-11-10T06:52:11.647Z,6.82
2022-11-10T06:54:41.574Z,6.86
2022-11-10T06:57:13.754Z,6.88
2022-11-10T06:59:44.085Z,6.95
2022-11-10T07:02:16.951Z,6.99
2022-11-10T07:04:51.810Z,7.04
2022-11-10T07:07:21.837Z,7.09
2022-11-10T07:09:51.169Z,7.13
2022-11-10T07:12:24.423Z,7.18
2022-11-10T07:14:53.517Z,7.21
2022-11-10T07:17:24.522Z,7.27
2022-11-10T07:19:57.033Z,7.31
2022-11-10T07:22:30.840Z,7.37
2022-11-10T07:25:23.068Z,7.42
2022-11-10T07:27:58.475Z,7.48
2022-11-10T07:30:31.268Z,7.55
2022-11-10T07:33:03.415Z,7.68
2022-11-10T07:35:44.855Z,7.82
2022-11-10T07:38:18.108Z,7.91
2022-11-10T07:40:51.659Z,8.03
2022-11-10T07:43:24.634Z,8.11
2022-11-10T07:45:55.732Z,8.21
2022-11-10T07:48:25.777Z,8.27
2022-11-10T07:50:55.711Z,8.32
2022-11-10T07:53:26.924Z,8.38
2022-11-10T07:55:59.755Z,8.41
2022-11-10T07:58:36.316Z,8.46
2022-11-10T08:01:08.790Z,8.46
2022-11-10T08:03:40.257Z,8.47
2022-11-10T08:06:11.527Z,8.48
2022-11-10T08:08:41.389Z,8.49
2022-11-10T08:11:10.655Z,8.52
2022-11-10T08:13:43.099Z,8.56
2022-11-10T08:16:12.688Z,8.57
2022-11-10T08:18:41.738Z,8.61
2022-11-10T08:21:11.428Z,8.60
2022-11-10T08:23:41.224Z,8.62
2022-11-10T08:26:10.830Z,8.61
2022-11-10T08:28:41.916Z,8.64
2022-11-10T08:31:11.332Z,8.67
2022-11-10T08:33:41.637Z,8.65
2022-11-10T08:36:12.374Z,8.67
2022-11-10T08:38:42.172Z,8.66
2022-11-10T08:41:12.302Z,8.68
2022-11-10T08:43:43.656Z,8.72
2022-11-10T08:46:14.352Z,8.76
2022-11-10T08:48:44.806Z,8.77
2022-11-10T08:51:14.612Z,8.78
2022-11-10T08:53:44.746Z,8.82
2022-11-10T08:56:14.221Z,8.86
2022-11-10T08:58:52.951Z,8.90
2022-11-10T09:01:23.839Z,8.92
2022-11-10T09:03:54.052Z,8.94
2022-11-10T09:06:22.720Z,8.98
2022-11-10T09:08:53.172Z,9.02
2022-11-10T09:11:24.111Z,9.00
2022-11-10T09:13:56.100Z,9.01
2022-11-10T09:16:25.898Z,8.99
2022-11-10T09:18:56.117Z,9.03
2022-11-10T09:21:25.308Z,9.07
2022-11-10T09:23:54.538Z,9.08
2022-11-10T09:26:24.227Z,9.07
2022-11-10T09:28:54.955Z,9.12
2022-11-10T09:31:24.463Z,9.13
2022-11-10T09:33:54.888Z,9.13
2022-11-10T09:36:25.569Z,9.16
2022-11-10T09:38:55.384Z,9.14
2022-11-10T09:41:25.116Z,9.15
2022-11-10T09:44:07.052Z,9.17
2022-11-10T09:46:44.308Z,9.19
2022-11-10T09:49:39.369Z,9.22
2022-11-10T09:52:12.110Z,9.26
2022-11-10T09:54:46.615Z,9.25
2022-11-10T09:57:20.344Z,9.29
2022-11-10T09:59:52.533Z,9.32
2022-11-10T10:02:31.729Z,9.33
2022-11-10T10:06:02.742Z,9.38
2022-11-10T10:08:49.335Z,9.38
2022-11-10T10:11:35.372Z,9.45
2022-11-10T10:14:25.695Z,9.48
2022-11-10T10:17:05.642Z,9.50
2022-11-10T10:19:50.585Z,9.53
2022-11-10T10:23:07.051Z,9.60
2022-11-10T10:25:40.085Z,9.65
2022-11-10T10:28:21.692Z,9.67
2022-11-10T10:30:50.788Z,9.70
2022-11-10T10:33:23.624Z,9.72
2022-11-10T10:35:52.559Z,9.74
2022-11-10T10:38:29.081Z,9.76
2022-11-10T10:41:04.716Z,9.73
2022-11-10T10:43:35.295Z,9.73
2022-11-10T10:46:11.815Z,9.73
2022-11-10T10:48:43.641Z,9.77
2022-11-10T10:51:30.777Z,9.80
2022-11-10T10:53:59.904Z,9.82
2022-11-10T10:56:34.668Z,9.85
2022-11-10T10:59:06.061Z,9.87
2022-11-10T11:01:39.621Z,9.90
2022-11-10T11:04:33.133Z,9.91
2022-11-10T11:07:06.190Z,9.90
2022-11-10T11:09:44.594Z,9.92
2022-11-10T11:12:27.363Z,9.96
2022-11-10T11:15:20.881Z,9.97
2022-11-10T11:17:58.139Z,9.98
2022-11-10T11:20:46.096Z,10.00
2022-11-10T11:24:01.561Z,9.99
2022-11-10T11:26:46.484Z,9.99
2022-11-10T11:29:53.191Z,10.02
2022-11-10T11:32:52.011Z,10.04
2022-11-10T11:35:32.740Z,10.10
2022-11-10T11:38:14.045Z,10.14
2022-11-10T11:40:53.436Z,10.18
2022-11-10T11:44:02.322Z,10.21
2022-11-10T11:46:49.401Z,10.24
2022-11-10T11:49:54.185Z,10.26
2022-11-10T11:52:35.496Z,10.28
2022-11-10T11:55:26.002Z,10.33
2022-11-10T11:58:32.168Z,10.34
2022-11-10T12:01:43.990Z,10.38
2022-11-10T12:04:44.871Z,10.42
2022-11-10T12:07:52.654Z,10.43
2022-11-10T12:10:42.956Z,10.41
2022-11-10T12:13:36.925Z,10.44
2022-11-10T12:16:17.691Z,10.46
2022-11-10T12:18:55.985Z,10.48
2022-11-10T12:21:30.109Z,10.50
2022-11-10T12:24:33.506Z,10.52
2022-11-10T12:27:16.575Z,10.50
2022-11-10T12:29:52.391Z,10.56
2022-11-10T12:32:30.000Z,10.54
2022-11-10T12:35:07.943Z,10.59
2022-11-10T12:37:44.028Z,10.58
2022-11-10T12:40:20.261Z,10.60
2022-11-10T12:43:01.443Z,10.63
2022-11-10T12:45:41.543Z,10.56
2022-11-10T12:48:13.486Z,10.55
2022-11-10T12:50:57.200Z,10.55
2022-11-10T12:53:30.379Z,10.60
2022-11-10T12:56:06.479Z,10.61
2022-11-10T12:58:38.037Z,10.60
2022-11-10T13:01:17.579Z,10.57
2022-11-10T13:03:57.779Z,10.62
2022-11-10T13:06:31.824Z,10.64
2022-11-10T13:09:02.095Z,10.67
2022-11-10T13:11:35.408Z,10.63
2022-11-10T13:14:22.273Z,10.66
2022-11-10T13:16:54.376Z,10.67
2022-11-10T13:19:54.922Z,10.64
2022-11-10T13:22:40.583Z,10.67
2022-11-10T13:25:54.649Z,10.66
2022-11-10T13:29:29.449Z,10.68
2022-11-10T13:32:01.151Z,10.67
2022-11-10T13:34:33.877Z,10.69
2022-11-10T13:37:04.726Z,10.65
2022-11-10T13:39:35.160Z,10.63
2022-11-10T13:42:19.795Z,10.64
2022-11-10T13:44:51.710Z,10.64
2022-11-10T13:47:59.041Z,10.68
2022-11-10T13:50:54.211Z,10.71
2022-11-10T13:53:38.249Z,10.74
2022-11-10T13:56:25.997Z,10.79
2022-11-10T13:58:55.613Z,10.77
2022-11-10T14:01:32.769Z,10.77
2022-11-10T14:04:03.106Z,10.76
2022-11-10T14:06:45.455Z,10.76
2022-11-10T14:09:31.683Z,10.79
2022-11-10T14:12:15.322Z,10.81
2022-11-10T14:14:56.136Z,10.81
2022-11-10T14:17:34.175Z,10.75
2022-11-10T14:20:05.771Z,10.79
2022-11-10T14:22:40.575Z,10.76
2022-11-10T14:25:25.628Z,10.81
2022-11-10T14:27:58.218Z,10.79
2022-11-10T14:30:29.514Z,10.80
2022-11-10T14:33:03.978Z,10.71
2022-11-10T14:35:49.271Z,10.70
2022-11-10T14:38:24.092Z,10.65
2022-11-10T14:40:57.629Z,10.65
2022-11-10T14:43:29.175Z,10.66
2022-11-10T14:45:59.290Z,10.67
2022-11-10T14:48:32.862Z,10.63
2022-11-10T14:51:09.313Z,10.59
2022-11-10T14:53:41.498Z,10.63
2022-11-10T14:56:20.415Z,10.58
2022-11-10T14:58:50.988Z,10.61
2022-11-10T15:01:27.568Z,10.63
2022-11-10T15:03:59.669Z,10.66
2022-11-10T15:06:29.666Z,10.69
2022-11-10T15:08:58.519Z,10.69
2022-11-10T15:11:40.479Z,10.65
2022-11-10T15:14:39.772Z,10.62
2022-11-10T15:17:11.228Z,10.63
2022-11-10T15:19:55.708Z,10.63
2022-11-10T15:22:32.764Z,10.64
2022-11-10T15:25:09.746Z,10.60
2022-11-10T15:27:39.757Z,10.62
2022-11-10T15:30:26.830Z,10.51
2022-11-10T15:33:02.039Z,10.51
2022-11-10T15:35:34.993Z,10.52
2022-11-10T15:38:08.393Z,10.51
2022-11-10T15:40:45.633Z,10.53
2022-11-10T15:43:28.016Z,10.51
2022-11-10T15:46:02.238Z,10.50
2022-11-10T15:48:39.949Z,10.49
2022-11-10T15:51:19.091Z,10.50
2022-11-10T15:53:54.640Z,10.50
2022-11-10T15:56:26.378Z,10.52
2022-11-10T15:59:02.162Z,10.50
2022-11-10T16:01:32.793Z,10.54
2022-11-10T16:04:03.265Z,10.50
2022-11-10T16:06:34.064Z,10.47
2022-11-10T16:09:03.272Z,10.48
2022-11-10T16:11:33.467Z,10.45
2022-11-10T16:14:05.889Z,10.44
2022-11-10T16:16:36.720Z,10.39
2022-11-10T16:19:06.337Z,10.37
2022-11-10T16:21:36.236Z,10.36
2022-11-10T16:24:05.707Z,10.34
2022-11-10T16:26:35.762Z,10.31
2022-11-10T16:29:10.509Z,10.27
2022-11-10T16:31:39.815Z,10.25
2022-11-10T16:34:14.901Z,10.24
2022-11-10T16:36:48.424Z,10.22
2022-11-10T16:39:18.739Z,10.22
2022-11-10T16:41:48.390Z,10.20
2022-11-10T16:44:24.799Z,10.19
2022-11-10T16:46:57.639Z,10.08
2022-11-10T16:49:33.110Z,10.04
2022-11-10T16:52:15.124Z,10.03
2022-11-10T16:54:45.006Z,10.07
2022-11-10T16:57:16.026Z,9.97
2022-11-10T16:59:45.829Z,10.01
2022-11-10T17:02:31.144Z,10.00
2022-11-10T17:05:00.588Z,10.01
2022-11-10T17:07:31.161Z,9.96
2022-11-10T17:10:02.898Z,9.99
2022-11-10T17:12:31.977Z,9.95
2022-11-10T17:15:02.079Z,9.96
2022-11-10T17:17:31.264Z,9.94
2022-11-10T17:20:01.622Z,9.90
2022-11-10T17:22:36.455Z,9.93
2022-11-10T17:25:06.133Z,9.91
2022-11-10T17:27:38.049Z,9.89
2022-11-10T17:30:12.831Z,9.90
2022-11-10T17:33:04.319Z,9.91
2022-11-10T17:35:37.602Z,9.89
2022-11-10T17:38:19.597Z,9.87
2022-11-10T17:40:49.420Z,9.86
2022-11-10T17:43:18.731Z,9.86
2022-11-10T17:45:48.061Z,9.83
2022-11-10T17:48:18.186Z,9.85
2022-11-10T17:50:48.152Z,9.84
2022-11-10T17:53:23.811Z,9.85
2022-11-10T17:55:53.180Z,9.83
2022-11-10T17:58:22.236Z,9.79
2022-11-10T18:00:52.119Z,9.78
2022-11-10T18:03:23.963Z,9.78
2022-11-10T18:05:53.552Z,9.77
2022-11-10T18:08:25.974Z,9.76
2022-11-10T18:10:55.589Z,9.71
2022-11-10T18:13:25.943Z,9.70
2022-11-10T18:16:01.133Z,9.71
2022-11-10T18:18:30.325Z,9.70
2022-11-10T18:20:59.591Z,9.67
2022-11-10T18:23:30.112Z,9.66
2022-11-10T18:26:06.120Z,9.67
2022-11-10T18:28:36.349Z,9.65
2022-11-10T18:31:10.233Z,9.65
2022-11-10T18:33:40.821Z,9.63
2022-11-10T18:36:11.424Z,9.61
2022-11-10T18:38:42.516Z,9.59
2022-11-10T18:41:29.704Z,9.59
2022-11-10T18:44:00.044Z,9.56
2022-11-10T18:46:29.812Z,9.57
2022-11-10T18:49:00.101Z,9.57
2022-11-10T18:51:29.833Z,9.50
2022-11-10T18:54:00.685Z,9.50
2022-11-10T18:56:29.331Z,9.50
2022-11-10T18:58:58.525Z,9.51
2022-11-10T19:01:28.723Z,9.51
2022-11-10T19:03:57.389Z,9.47
2022-11-10T19:06:26.151Z,9.46
2022-11-10T19:08:57.594Z,9.49
2022-11-10T19:11:28.136Z,9.49
2022-11-10T19:14:00.864Z,9.48
2022-11-10T19:16:31.506Z,9.47
2022-11-10T19:19:00.611Z,9.45
2022-11-10T19:21:30.609Z,9.46
2022-11-10T19:24:00.164Z,9.47
2022-11-10T19:26:32.932Z,9.46
2022-11-10T19:29:02.245Z,9.46
2022-11-10T19:31:31.963Z,9.45
2022-11-10T19:34:01.769Z,9.46
2022-11-10T19:36:31.027Z,9.43
2022-11-10T19:39:01.310Z,9.41
2022-11-10T19:41:33.021Z,9.41
2022-11-10T19:44:02.795Z,9.43
2022-11-10T19:46:36.686Z,9.41
2022-11-10T19:49:06.736Z,9.43
2022-11-10T19:51:36.485Z,9.40
2022-11-10T19:54:06.306Z,9.37
2022-11-10T19:56:36.885Z,9.37
2022-11-10T19:59:06.907Z,9.35
2022-11-10T20:01:37.763Z,9.37
2022-11-10T20:04:08.650Z,9.38
2022-11-10T20:06:38.014Z,9.37
2022-11-10T20:09:10.407Z,9.36
2022-11-10T20:11:42.907Z,9.33
2022-11-10T20:14:12.244Z,9.35
2022-11-10T20:16:41.353Z,9.34
2022-11-10T20:19:11.482Z,9.33
2022-11-10T20:21:40.925Z,9.32
2022-11-10T20:24:10.597Z,9.31
2022-11-10T20:26:40.985Z,9.29
2022-11-10T20:29:10.085Z,9.29
2022-11-10T20:31:38.893Z,9.30
2022-11-10T20:34:08.863Z,9.26
2022-11-10T20:36:38.545Z,9.25
2022-11-10T20:39:07.990Z,9.22
2022-11-10T20:41:37.933Z,9.21
2022-11-10T20:44:09.836Z,9.19
2022-11-10T20:46:55.550Z,9.18
2022-11-10T20:49:25.826Z,9.17
2022-11-10T20:51:59.786Z,9.16
2022-11-10T20:54:29.034Z,9.16
2022-11-10T20:56:57.972Z,9.12
2022-11-10T20:59:28.897Z,9.09
2022-11-10T21:01:58.845Z,9.05
2022-11-10T21:04:28.788Z,9.05
2022-11-10T21:06:57.380Z,9.03
2022-11-10T21:09:27.916Z,9.01
2022-11-10T21:12:13.996Z,9.00
2022-11-10T21:14:44.380Z,8.95
2022-11-10T21:17:14.141Z,8.98
2022-11-10T21:19:43.410Z,8.97
2022-11-10T21:22:13.494Z,8.99
2022-11-10T21:24:43.597Z,8.98
2022-11-10T21:27:13.952Z,9.00
2022-11-10T21:29:45.421Z,9.01
2022-11-10T21:32:15.928Z,9.02
2022-11-10T21:34:47.323Z,8.99
2022-11-10T21:37:17.037Z,9.00
2022-11-10T21:39:47.423Z,9.00
2022-11-10T21:42:20.918Z,9.01
2022-11-10T21:44:51.328Z,8.99
2022-11-10T21:47:20.892Z,8.95
2022-11-10T21:49:50.425Z,8.99
2022-11-10T21:52:19.031Z,8.93
2022-11-10T21:54:49.218Z,8.94
2022-11-10T21:57:17.751Z,8.94
2022-11-10T21:59:46.967Z,8.93
2022-11-10T22:02:17.584Z,8.95
2022-11-10T22:04:46.214Z,8.96
2022-11-10T22:07:24.321Z,8.95
2022-11-10T22:10:11.417Z,8.95
2022-11-10T22:13:05.353Z,8.89
2022-11-10T22:15:52.644Z,8.94
2022-11-10T22:18:41.280Z,8.95
2022-11-10T22:21:12.005Z,8.93
2022-11-10T22:23:59.945Z,8.93
2022-11-10T22:26:29.509Z,8.93
2022-11-10T22:29:00.673Z,8.93
2022-11-10T22:31:29.552Z,8.90
2022-11-10T22:34:01.338Z,8.89
2022-11-10T22:36:30.970Z,8.85
2022-11-10T22:39:03.332Z,8.82
2022-11-10T22:41:50.814Z,8.84
2022-11-10T22:44:24.801Z,8.81
2022-11-10T22:46:54.758Z,8.83
2022-11-10T22:49:27.288Z,8.80
2022-11-10T22:51:58.817Z,8.83
2022-11-10T22:54:29.343Z,8.83
2022-11-10T22:56:58.306Z,8.80
2022-11-10T22:59:27.805Z,8.74
2022-11-10T23:01:57.254Z,8.73
2022-11-10T23:04:28.469Z,8.75
2022-11-10T23:06:58.179Z,8.75
2022-11-10T23:09:28.785Z,8.72
2022-11-10T23:11:57.975Z,8.69
2022-11-10T23:14:26.987Z,8.67
2022-11-10T23:16:56.560Z,8.65
2022-11-10T23:19:27.614Z,8.60
2022-11-10T23:21:57.632Z,8.60
2022-11-10T23:24:27.287Z,8.61
2022-11-10T23:26:57.297Z,8.56
2022-11-10T23:29:26.620Z,8.58
2022-11-10T23:31:56.875Z,8.61
2022-11-10T23:34:27.959Z,8.61
2022-11-10T23:36:57.617Z,8.64
2022-11-10T23:39:28.830Z,8.63
2022-11-10T23:41:58.514Z,8.65
2022-11-10T23:44:28.959Z,8.64
2022-11-10T23:46:58.456Z,8.62
2022-11-10T23:49:29.866Z,8.58
2022-11-10T23:51:59.360Z,8.50
2022-11-10T23:54:29.517Z,8.48
2022-11-10T23:56:58.573Z,8.50
2022-11-10T23:59:27.694Z,8.49
